AirNav   Air Wisconsin Up To $57,000 Bonus
 
 605 users online  

81MI Three Rivers Health Heliport
Three Rivers, Michigan, USA

GOING TO THREE RIVERS?


FAA INFORMATION EFFECTIVE 05 DECEMBER 2019

Location

FAA Identifier: 81MI
Lat/Long: 41-56-07.7100N 085-38-55.3500W
41-56.128500N 085-38.922500W
41.9354750,-85.6487083
(estimated)
Elevation: 818 ft. / 249 m (estimated)
From city: 1 mile SW of THREE RIVERS, MI
Time zone: UTC -5 (UTC -4 during Daylight Saving Time)
Zip code: 49093

Heliport Operations

Heliport use: Private use. Permission required prior to landing
Activation date: 12/2017
Control tower: no
ARTCC: CHICAGO CENTER
FSS: CLEVELAND FLIGHT SERVICE STATION
Attendance: 
Wind indicator: yes
Segmented circle: no

Heliport Communications

WX AWOS-3 at HAI (2.9 nm NE): 119.975 (269-273-6705)
WX AWOS-3 at IRS (12 nm SE): 121.325 (269-659-8715)
WX ASOS at AZO (18 nm N): 127.25 (269-459-3391)

Nearby radio navigation aids

VOR radial/distance  VOR name  Freq  Var
AZOr194/18.6KALAMAZOO VOR/DME109.0001W
ELXr121/24.6KEELER VOR/DME116.6000E
GSHr035/29.9GOSHEN VORTAC113.7000E
GIJr072/31.6GIPPER VORTAC115.4000E
PMMr148/37.7PULLMAN VOR/DME112.1000E

 
NDB name  Hdg/Dist  Freq  Var  ID
STURGIS311/12.138204WIRS .. .-. ...
AUSTN207/12.937103WAZ .- --..

Heliport Services

Runway Information

Helipad H1

Dimensions: 50 x 50 ft. / 15 x 15 m
Surface: concrete, in good condition
Latitude: 41-56.128500N
Longitude: 085-38.922500W
Elevation: 818.0 ft.
Traffic pattern: leftleft

Heliport Ownership and Management from official FAA records

Ownership: Privately-owned
Owner: THREE RIVERS HEALTH SYSTEM INC.
701 S. HEALTH PARKWAY
THREEE RIVERS, MI 49093
Phone 269-278-1145
Manager: LUKE PARSONS
701 S. HEALTH PARKWAY
THREE RIVERS, MI 49093
Phone 269-273-9661

Additional Remarks

FOR CD CTC CLEVELAND ARTCC AT 440-774-0490.

Instrument Procedures

There are no published instrument procedures at 81MI.

Some nearby airports with instrument procedures:

KHAI - Three Rivers Municipal Dr Haines Airport (3 nm NE)
KIRS - Kirsch Municipal Airport (12 nm SE)
KAZO - Kalamazoo/Battle Creek International Airport (18 nm N)
KEKM - Elkhart Municipal Airport (20 nm SW)
C91 - Dowagiac Municipal Airport (22 nm W)
 
Loc | Ops | Rwys | IFR | FBO | Links
Com | Nav | Svcs | Stats | Notes
Aerial photo
No photo
 
Airport distance calculator
Flying to Three Rivers Health Heliport? Find the distance to fly.

From to 81MI

Sunrise and sunset
Times for 07-Dec-2019
 Local
(UTC-5)
 Zulu
(UTC)
Morning civil twilight07:2612:26
Sunrise07:5812:58
Sunset17:1022:10
Evening civil twilight17:4222:42

Current date and time
Zulu (UTC)  07-Dec-2019 08:50:11
Local (UTC-5)  07-Dec-2019 03:50:11
 
METAR
KHAI 
3nm NE 
070836Z AUTO 18005KT 10SM CLR M07/M08 A3036 RMK AO2 T10661079
KIRS 
13nm SE 
070835Z AUTO 00000KT 10SM CLR M05/M08 A3036 RMK AO2 T10531080
KAZO 
18nm N 
070753Z AUTO 00000KT 10SM CLR M06/M09 A3036 RMK AO2 SLP291 T10611089
TAF
KAZO 
18nm N 
070530Z 0706/0806 03003KT P6SM SCT250 FM071400 17006KT P6SM BKN100 FM071800 19009KT P6SM FEW250
NOTAMs
Click for the latest NOTAMs
NOTAMs are issued by the DoD/FAA and will open in a separate window not controlled by AirNav.

 

 
 

Would you like to see your business listed on this page?

 If your business provides an interesting product or service to pilots, flight crews, aircraft, or users of the Three Rivers Health Heliport, you should consider listing it here.  To start the listing process, click on the button below
 
Add a business
 

Other Pages about Three Rivers Health Heliport

Update a link
 
Copyright © AirNav, LLC. All rights reserved. Privacy Policy  Contact